Time;durP1;ratioP1;P1;durP2;ratioP2;P2;SDS_P1;SDS_P2;PMS_P1;PMS_P2;Temp;Humidity;BMP_temperature;BMP_pressure;BME280_temperature;BME280_humidity;BME280_pressure;Samples;Min_cycle;Max_cycle;Signal;HPM_P1;HPM_P2
2022/06/01 00:01:45;;;;;;;10.40;9.47;;;14.30;1.00;;;;;;5053232;28;20511;-56
2022/06/01 00:04:11;;;;;;;10.40;9.60;;;14.30;1.00;;;;;;5051214;28;20203;-54
2022/06/01 00:06:37;;;;;;;11.90;10.70;;;14.30;1.00;;;;;;5053985;28;20481;-56
2022/06/01 00:09:03;;;;;;;11.43;10.53;;;14.20;1.00;;;;;;5049361;28;20446;-55
2022/06/01 00:11:28;;;;;;;11.73;10.83;;;14.20;1.00;;;;;;5053075;28;20198;-55
2022/06/01 00:13:54;;;;;;;11.90;10.80;;;14.20;1.00;;;;;;5058907;28;20203;-55
2022/06/01 00:16:21;;;;;;;12.43;11.33;;;14.20;1.00;;;;;;5050986;28;20180;-55
2022/06/01 00:18:46;;;;;;;12.00;10.90;;;14.20;1.00;;;;;;5048713;28;20187;-56
2022/06/01 00:21:12;;;;;;;14.10;12.73;;;14.10;1.00;;;;;;5052306;28;20461;-56
2022/06/01 00:23:38;;;;;;;13.07;11.97;;;14.10;1.00;;;;;;5052392;28;20211;-55
2022/06/01 00:26:06;;;;;;;12.87;11.77;;;14.10;1.00;;;;;;5048071;28;20200;-54
2022/06/01 00:28:32;;;;;;;14.00;12.80;;;14.00;1.00;;;;;;5050036;28;20585;-56
2022/06/01 00:30:59;;;;;;;13.93;12.63;;;14.00;1.00;;;;;;5049564;28;20471;-55
2022/06/01 00:33:25;;;;;;;14.57;13.27;;;13.90;1.00;;;;;;5050999;28;20577;-54
2022/06/01 00:35:50;;;;;;;14.10;12.90;;;13.90;1.00;;;;;;5044501;28;20565;-55
2022/06/01 00:38:16;;;;;;;14.13;12.83;;;13.80;1.00;;;;;;5049434;28;20553;-54
2022/06/01 00:40:42;;;;;;;15.17;13.83;;;13.70;1.00;;;;;;5051197;28;20194;-55
2022/06/01 00:43:21;;;;;;;15.70;14.10;;;13.70;1.00;;;;;;5055477;28;20433;-56
2022/06/01 00:45:47;;;;;;;14.77;13.23;;;13.60;1.00;;;;;;5052877;28;20188;-56
2022/06/01 00:48:14;;;;;;;15.17;13.67;;;13.60;1.00;;;;;;5051677;28;20425;-56
2022/06/01 00:50:41;;;;;;;14.50;13.30;;;13.60;1.00;;;;;;5049382;28;20195;-55
2022/06/01 00:53:12;;;;;;;14.90;13.43;;;13.60;1.00;;;;;;5055586;28;20603;-55
2022/06/01 00:55:44;;;;;;;15.10;13.70;;;13.60;1.00;;;;;;5054431;28;20535;-54
2022/06/01 00:58:20;;;;;;;16.07;14.63;;;13.50;1.00;;;;;;5047340;28;20450;-56
2022/06/01 01:00:48;;;;;;;17.27;15.63;;;13.50;1.00;;;;;;5056261;28;20451;-54
2022/06/01 01:03:16;;;;;;;16.30;14.70;;;13.40;1.00;;;;;;5049035;28;21000;-56
2022/06/01 01:05:53;;;;;;;15.40;14.00;;;13.50;1.00;;;;;;5052829;28;20447;-56
2022/06/01 01:08:19;;;;;;;18.03;16.17;;;13.40;1.00;;;;;;5045735;28;20469;-55
2022/06/01 01:10:44;;;;;;;19.57;17.67;;;13.40;1.00;;;;;;5050614;28;20446;-55
2022/06/01 01:13:14;;;;;;;17.07;15.37;;;13.30;1.00;;;;;;5048850;28;20204;-56
2022/06/01 01:15:43;;;;;;;18.70;16.80;;;13.20;1.00;;;;;;5051842;28;20690;-55
2022/06/01 01:18:12;;;;;;;18.20;16.40;;;13.20;1.00;;;;;;5049389;28;20786;-55
2022/06/01 01:20:56;;;;;;;18.87;16.93;;;13.10;1.00;;;;;;5050232;28;20446;-56
2022/06/01 01:23:37;;;;;;;20.30;18.10;;;13.10;1.00;;;;;;5046745;28;20442;-56
2022/06/01 01:26:06;;;;;;;17.57;15.90;;;13.20;1.00;;;;;;5051073;28;20468;-60
2022/06/01 01:28:31;;;;;;;19.27;17.37;;;13.20;1.00;;;;;;5048145;28;20465;-54
2022/06/01 01:31:02;;;;;;;19.53;17.60;;;13.20;1.00;;;;;;5049849;28;20438;-55
2022/06/01 01:33:32;;;;;;;20.50;18.50;;;13.20;1.00;;;;;;5050792;28;20739;-56
2022/06/01 01:36:04;;;;;;;18.83;17.00;;;13.20;1.00;;;;;;5049854;28;20529;-55
2022/06/01 01:38:54;;;;;;;18.23;16.43;;;13.20;1.00;;;;;;5050296;28;20442;-54
2022/06/01 01:41:28;;;;;;;18.70;16.90;;;13.10;1.00;;;;;;5045670;28;20523;-55
2022/06/01 01:44:20;;;;;;;19.00;17.20;;;13.30;1.00;;;;;;5049748;28;20444;-55
2022/06/01 01:46:47;;;;;;;19.57;17.57;;;13.30;1.00;;;;;;5046273;28;20481;-54
2022/06/01 01:49:21;;;;;;;19.10;16.97;;;13.30;1.00;;;;;;5048793;28;20546;-57
2022/06/01 01:51:49;;;;;;;19.67;17.60;;;13.20;1.00;;;;;;5050853;28;20472;-54
2022/06/01 01:54:39;;;;;;;18.30;15.90;;;13.20;1.00;;;;;;5053389;28;20473;-56
2022/06/01 01:57:28;;;;;;;18.60;16.60;;;13.20;1.00;;;;;;5047703;28;20543;-55
2022/06/01 02:00:07;;;;;;;17.63;15.93;;;13.20;1.00;;;;;;5048301;28;20420;-56
2022/06/01 02:03:04;;;;;;;19.27;17.37;;;13.20;1.00;;;;;;5045493;28;20521;-56
2022/06/01 02:08:56;;;;;;;18.50;16.53;;;13.30;1.00;;;;;;5048707;28;20444;-54
2022/06/01 02:14:42;;;;;;;17.73;16.13;;;13.20;1.00;;;;;;5051310;28;20469;-55
2022/06/01 02:17:13;;;;;;;16.87;15.17;;;13.20;1.00;;;;;;5045391;28;20434;-55
2022/06/01 02:19:45;;;;;;;16.63;14.83;;;13.20;1.00;;;;;;5051413;28;20523;-55
2022/06/01 02:22:13;;;;;;;16.40;14.90;;;13.20;1.00;;;;;;5046643;28;20947;-56
2022/06/01 02:24:39;;;;;;;16.80;15.20;;;13.20;1.00;;;;;;5049530;28;20442;-56
2022/06/01 02:27:06;;;;;;;19.00;15.43;;;13.20;1.00;;;;;;5050300;28;20909;-56
2022/06/01 02:29:40;;;;;;;18.73;16.77;;;13.20;1.00;;;;;;5049907;28;20434;-55
2022/06/01 02:32:07;;;;;;;19.40;17.23;;;13.00;1.00;;;;;;5050001;28;20424;-56
2022/06/01 02:34:36;;;;;;;17.00;15.40;;;13.10;1.00;;;;;;5049682;28;20798;-55
2022/06/01 02:37:06;;;;;;;18.83;16.83;;;13.00;1.00;;;;;;5050558;28;20496;-54
2022/06/01 02:39:35;;;;;;;17.77;16.07;;;13.00;1.00;;;;;;5049326;28;21184;-56
2022/06/01 02:42:28;;;;;;;18.77;16.00;;;13.00;1.00;;;;;;5048679;28;20466;-55
2022/06/01 02:45:10;;;;;;;16.63;15.03;;;13.00;1.00;;;;;;5049827;28;20477;-55
2022/06/01 02:47:41;;;;;;;18.40;16.60;;;13.00;1.00;;;;;;5052129;28;20481;-54
2022/06/01 02:50:10;;;;;;;18.77;16.63;;;13.00;1.00;;;;;;5053324;28;20442;-55
2022/06/01 02:52:36;;;;;;;18.73;16.80;;;13.00;1.00;;;;;;5052493;28;20434;-56
2022/06/01 02:55:05;;;;;;;18.00;16.20;;;13.00;1.00;;;;;;5054693;28;20488;-55
2022/06/01 02:57:31;;;;;;;18.20;16.40;;;13.00;1.00;;;;;;5048686;28;20446;-55
2022/06/01 02:59:57;;;;;;;17.63;16.03;;;;;;;;;;5053554;28;20488;-56
2022/06/01 03:02:23;;;;;;;17.53;15.93;;;13.00;1.00;;;;;;5051794;28;20981;-56
2022/06/01 03:04:48;;;;;;;17.67;15.73;;;12.90;1.00;;;;;;5052871;28;20450;-56
2022/06/01 03:07:14;;;;;;;18.13;16.20;;;12.90;1.00;;;;;;5054534;28;20199;-56
2022/06/01 03:09:40;;;;;;;17.40;15.47;;;;;;;;;;5051753;28;20184;-55
2022/06/01 03:12:06;;;;;;;18.50;15.43;;;12.80;1.00;;;;;;5052585;28;20191;-54
2022/06/01 03:14:33;;;;;;;18.87;16.67;;;12.90;1.00;;;;;;5054893;28;20470;-56
2022/06/01 03:16:59;;;;;;;18.07;16.20;;;12.90;1.00;;;;;;5051213;28;21083;-56
2022/06/01 03:19:25;;;;;;;17.70;16.10;;;13.00;1.00;;;;;;5054044;28;20453;-54
2022/06/01 03:21:51;;;;;;;18.67;16.77;;;13.00;1.00;;;;;;5053317;28;20226;-55
2022/06/01 03:24:17;;;;;;;18.27;16.47;;;13.00;1.00;;;;;;5049640;28;20885;-56
2022/06/01 03:26:43;;;;;;;20.57;16.00;;;13.00;1.00;;;;;;5051512;28;20960;-55
2022/06/01 03:29:09;;;;;;;17.20;15.50;;;13.10;1.00;;;;;;5051830;28;20546;-55
2022/06/01 03:31:35;;;;;;;17.13;15.47;;;13.10;1.00;;;;;;5051212;28;20199;-56
2022/06/01 03:34:01;;;;;;;16.23;14.57;;;13.30;1.00;;;;;;5054022;28;20470;-57
2022/06/01 03:36:27;;;;;;;16.53;14.77;;;13.30;1.00;;;;;;5052857;28;20541;-55
2022/06/01 03:38:52;;;;;;;15.13;13.60;;;13.30;1.00;;;;;;5050854;28;20542;-56
2022/06/01 03:41:18;;;;;;;13.87;12.60;;;13.40;1.00;;;;;;5058931;28;20188;-55
2022/06/01 03:46:30;;;;;;;15.87;14.30;;;13.60;1.00;;;;;;5052068;28;20267;-56
2022/06/01 03:48:56;;;;;;;15.17;13.87;;;13.60;1.00;;;;;;5051022;28;20460;-55
2022/06/01 03:51:23;;;;;;;15.87;14.27;;;13.70;1.00;;;;;;5052610;28;20409;-56
2022/06/01 03:53:49;;;;;;;16.67;14.97;;;13.70;1.00;;;;;;5047686;28;20220;-55
2022/06/01 03:56:15;;;;;;;17.87;16.17;;;13.60;1.00;;;;;;5043324;28;20440;-55
2022/06/01 03:58:40;;;;;;;16.77;15.10;;;13.40;1.00;;;;;;5041461;28;20793;-55
2022/06/01 04:01:06;;;;;;;17.80;15.90;;;13.70;1.00;;;;;;5047425;28;20192;-56
2022/06/01 04:03:32;;;;;;;17.70;16.00;;;15.50;1.00;;;;;;5049681;28;20224;-55
2022/06/01 04:05:58;;;;;;;17.97;16.27;;;13.50;1.00;;;;;;5049702;28;20930;-57
2022/06/01 04:08:23;;;;;;;19.87;17.87;;;13.40;1.00;;;;;;5050541;28;20192;-54
2022/06/01 04:10:49;;;;;;;18.33;16.63;;;13.30;1.00;;;;;;5049085;28;20192;-59
2022/06/01 04:13:16;;;;;;;20.43;17.40;;;13.30;1.00;;;;;;5051189;28;20294;-58
2022/06/01 04:15:42;;;;;;;19.10;16.83;;;13.30;1.00;;;;;;5048815;28;20234;-57
2022/06/01 04:18:08;;;;;;;19.90;17.83;;;13.30;1.00;;;;;;5049290;28;20519;-58
2022/06/01 04:20:34;;;;;;;20.37;18.27;;;13.50;1.00;;;;;;5048261;28;20461;-57
2022/06/01 04:23:00;;;;;;;19.40;17.40;;;13.60;1.00;;;;;;5047074;28;20789;-57
2022/06/01 04:25:28;;;;;;;18.17;16.40;;;13.50;1.00;;;;;;5051449;28;20227;-55
2022/06/01 04:27:53;;;;;;;18.90;16.90;;;13.60;1.00;;;;;;5050921;28;20820;-55
2022/06/01 04:30:20;;;;;;;18.87;16.97;;;13.80;1.00;;;;;;5047414;28;20457;-55
2022/06/01 04:32:50;;;;;;;19.20;17.17;;;13.90;1.00;;;;;;5048604;28;20263;-55
2022/06/01 04:35:17;;;;;;;17.40;15.80;;;14.00;1.00;;;;;;5050756;28;20454;-55
2022/06/01 04:37:43;;;;;;;18.17;16.40;;;14.10;1.00;;;;;;5046633;28;20451;-54
2022/06/01 04:40:09;;;;;;;19.50;17.10;;;14.30;1.00;;;;;;5048071;28;20452;-54
2022/06/01 04:42:36;;;;;;;17.87;16.17;;;14.20;1.00;;;;;;5050803;28;20540;-54
2022/06/01 04:45:03;;;;;;;17.10;15.30;;;14.40;1.00;;;;;;5050672;28;20461;-55
2022/06/01 04:47:28;;;;;;;17.50;15.57;;;14.50;1.00;;;;;;5050073;28;20513;-55
2022/06/01 04:49:54;;;;;;;17.87;16.23;;;14.60;1.00;;;;;;5048271;28;20777;-55
2022/06/01 04:52:19;;;;;;;20.87;18.70;;;14.70;1.00;;;;;;5049411;28;20188;-54
2022/06/01 04:54:45;;;;;;;18.10;16.17;;;14.60;1.00;;;;;;5046709;28;20215;-54
2022/06/01 04:57:10;;;;;;;19.00;17.07;;;14.50;1.00;;;;;;5049509;28;20230;-55
2022/06/01 04:59:36;;;;;;;17.60;15.80;;;14.50;1.00;;;;;;5049967;28;20180;-54
2022/06/01 05:02:02;;;;;;;18.83;17.03;;;14.70;1.00;;;;;;5049550;28;20238;-55
2022/06/01 05:04:28;;;;;;;19.07;17.30;;;14.80;1.00;;;;;;5047480;28;20195;-55
2022/06/01 05:06:57;;;;;;;18.00;16.10;;;14.90;1.00;;;;;;5050187;28;20197;-55
2022/06/01 05:09:22;;;;;;;18.67;16.77;;;14.90;1.00;;;;;;5048182;28;20454;-56
2022/06/01 05:11:48;;;;;;;17.43;15.83;;;14.70;1.00;;;;;;5045988;28;20433;-54
2022/06/01 05:14:14;;;;;;;18.10;16.30;;;14.70;1.00;;;;;;5046981;28;20219;-55
2022/06/01 05:16:39;;;;;;;18.50;16.60;;;14.70;1.00;;;;;;5043087;28;20202;-55
2022/06/01 05:19:06;;;;;;;18.80;16.87;;;14.70;1.00;;;;;;5049643;28;20188;-54
2022/06/01 05:21:31;;;;;;;16.60;15.10;;;14.80;1.00;;;;;;5049537;28;20179;-55
2022/06/01 05:23:57;;;;;;;18.87;16.53;;;14.90;1.00;;;;;;5047029;28;20433;-53
2022/06/01 05:26:23;;;;;;;18.63;16.83;;;15.10;1.00;;;;;;5046034;28;20195;-56
2022/06/01 05:28:49;;;;;;;17.00;15.30;;;15.20;1.00;;;;;;5045573;28;20499;-55
2022/06/01 05:31:14;;;;;;;18.50;16.70;;;15.10;1.00;;;;;;5048469;28;20673;-56
2022/06/01 05:33:43;;;;;;;18.47;16.43;;;15.20;1.00;;;;;;5049321;28;21661;-55
2022/06/01 05:36:09;;;;;;;17.33;15.73;;;15.30;1.00;;;;;;5055381;28;20190;-55
2022/06/01 05:38:34;;;;;;;18.37;16.60;;;15.40;1.00;;;;;;5050163;28;20450;-55
2022/06/01 05:41:01;;;;;;;18.73;16.77;;;15.40;1.00;;;;;;5047668;28;20859;-54
2022/06/01 05:43:27;;;;;;;18.83;16.93;;;;;;;;;;5048984;28;20184;-56
2022/06/01 05:45:52;;;;;;;18.53;16.70;;;15.40;1.00;;;;;;5047677;28;20454;-55
2022/06/01 05:48:19;;;;;;;19.67;17.67;;;15.50;1.00;;;;;;5047652;28;20421;-55
2022/06/01 05:50:45;;;;;;;19.93;17.97;;;15.70;1.00;;;;;;5044552;28;20892;-54
2022/06/01 05:53:11;;;;;;;17.70;16.00;;;15.80;1.00;;;;;;5046582;28;20451;-55
2022/06/01 05:55:38;;;;;;;18.50;16.63;;;15.90;1.00;;;;;;5047787;28;20845;-56
2022/06/01 05:58:11;;;;;;;19.63;16.40;;;16.00;1.00;;;;;;5045370;28;20212;-55
2022/06/01 06:00:36;;;;;;;18.50;16.70;;;16.10;1.00;;;;;;5046271;28;20450;-53
2022/06/01 06:03:02;;;;;;;15.20;13.70;;;16.30;1.00;;;;;;5047706;28;20526;-55
2022/06/01 06:08:11;;;;;;;15.53;14.03;;;16.60;1.00;;;;;;5047377;28;20199;-55
2022/06/01 06:10:37;;;;;;;17.10;15.40;;;16.40;1.00;;;;;;5046345;28;20446;-54
2022/06/01 06:13:02;;;;;;;15.27;13.73;;;16.90;1.00;;;;;;5044138;28;20314;-53
2022/06/01 06:15:28;;;;;;;15.63;14.13;;;17.00;1.00;;;;;;5047763;28;20198;-54
2022/06/01 06:17:54;;;;;;;14.87;13.47;;;17.00;1.00;;;;;;5047767;28;20710;-55
2022/06/01 06:20:20;;;;;;;15.30;12.90;;;17.00;1.00;;;;;;5047949;28;20246;-55
2022/06/01 06:22:46;;;;;;;16.07;13.80;;;17.00;1.00;;;;;;5047409;28;20465;-55
2022/06/01 06:25:11;;;;;;;10.20;9.40;;;17.20;1.00;;;;;;5046399;28;20477;-55
2022/06/01 06:27:37;;;;;;;10.20;9.20;;;;;;;;;;5049447;28;20705;-55
2022/06/01 06:30:04;;;;;;;9.37;8.50;;;17.60;1.00;;;;;;5048821;28;20183;-55
2022/06/01 06:32:29;;;;;;;10.10;9.20;;;17.70;1.00;;;;;;5048593;28;20462;-55
2022/06/01 06:34:55;;;;;;;9.77;8.87;;;17.60;1.00;;;;;;5049784;28;20480;-54
2022/06/01 06:37:20;;;;;;;9.77;8.93;;;17.70;1.00;;;;;;5051572;28;20548;-55
2022/06/01 06:39:46;;;;;;;9.10;8.07;;;18.00;1.00;;;;;;5055892;28;20237;-56
2022/06/01 06:42:11;;;;;;;10.07;9.07;;;17.90;1.00;;;;;;5065463;28;20597;-55
2022/06/01 06:44:38;;;;;;;10.37;9.10;;;;;;;;;;5059155;28;20180;-55
2022/06/01 06:47:04;;;;;;;7.90;7.30;;;18.10;1.00;;;;;;5066688;28;20320;-56
2022/06/01 06:49:29;;;;;;;7.13;5.53;;;18.30;1.00;;;;;;5046349;28;20462;-56
2022/06/01 06:51:55;;;;;;;5.17;4.70;;;18.40;1.00;;;;;;5048674;28;20450;-54
2022/06/01 06:54:21;;;;;;;6.00;4.60;;;;;;;;;;5045989;28;20206;-54
2022/06/01 06:56:47;;;;;;;5.13;4.73;;;18.20;1.00;;;;;;5045668;28;20192;-54
2022/06/01 06:59:15;;;;;;;6.43;4.57;;;18.10;1.00;;;;;;5044548;28;20447;-56
2022/06/01 07:01:41;;;;;;;6.13;3.90;;;18.10;1.00;;;;;;5046391;28;20630;-55
2022/06/01 07:04:06;;;;;;;4.07;3.67;;;18.00;1.00;;;;;;5045208;28;20465;-56
2022/06/01 07:06:32;;;;;;;4.27;3.97;;;18.10;1.00;;;;;;5045774;28;20240;-56
2022/06/01 07:08:57;;;;;;;3.70;3.40;;;18.10;1.00;;;;;;5046717;28;20282;-55
2022/06/01 07:11:26;;;;;;;4.10;3.80;;;18.40;1.00;;;;;;5050969;28;20206;-56
2022/06/01 07:13:51;;;;;;;3.93;3.63;;;18.50;1.00;;;;;;5044608;28;20262;-54
2022/06/01 07:16:22;;;;;;;3.30;3.00;;;18.60;1.00;;;;;;5046997;28;20478;-55
2022/06/01 07:18:50;;;;;;;3.40;2.67;;;18.30;1.00;;;;;;5046254;28;20204;-54
2022/06/01 07:21:18;;;;;;;3.13;2.87;;;18.40;1.00;;;;;;5049934;28;20913;-54
2022/06/01 07:23:45;;;;;;;4.30;2.90;;;18.40;1.00;;;;;;5049621;28;20413;-55
2022/06/01 07:26:19;;;;;;;2.70;2.50;;;18.60;1.00;;;;;;5052062;28;20432;-54
2022/06/01 07:28:45;;;;;;;2.60;2.40;;;18.50;1.00;;;;;;5050056;28;20439;-55
2022/06/01 07:31:13;;;;;;;3.10;2.80;;;18.60;1.00;;;;;;5049964;28;20815;-56
2022/06/01 07:33:39;;;;;;;3.60;2.63;;;18.70;1.00;;;;;;5056518;28;20835;-55
2022/06/01 07:36:09;;;;;;;4.00;3.30;;;18.90;1.00;;;;;;5057414;28;20457;-56
2022/06/01 07:44:32;;;;;;;5.33;3.27;;;19.50;1.00;;;;;;5054821;28;20851;-56
2022/06/01 07:46:57;;;;;;;13.93;3.60;;;19.40;1.00;;;;;;5057855;28;20460;-57
2022/06/01 07:49:23;;;;;;;6.50;3.17;;;19.60;1.00;;;;;;5051243;28;20442;-55
2022/06/01 07:51:49;;;;;;;4.10;3.70;;;19.80;1.00;;;;;;5059616;28;20282;-56
2022/06/01 07:54:15;;;;;;;4.00;3.60;;;19.40;1.00;;;;;;5055370;28;20616;-55
2022/06/01 07:56:41;;;;;;;4.27;3.80;;;19.50;1.00;;;;;;5048274;28;20428;-56
2022/06/01 07:59:08;;;;;;;3.80;3.50;;;19.60;1.00;;;;;;5047108;28;20425;-56
2022/06/01 08:01:34;;;;;;;4.57;3.00;;;20.00;1.00;;;;;;5049921;28;20280;-57
2022/06/01 08:04:02;;;;;;;4.17;3.63;;;20.40;1.00;;;;;;5051181;28;20451;-58
2022/06/01 08:06:29;;;;;;;3.70;3.40;;;20.20;1.00;;;;;;5055062;28;20271;-55
2022/06/01 08:08:55;;;;;;;3.30;3.10;;;20.10;1.00;;;;;;5053425;28;20802;-56
2022/06/01 08:13:06;;;;;;;3.73;3.43;;;20.20;1.00;;;;;;5050746;28;20450;-57
2022/06/01 08:14:09;;;;;;;4.00;3.47;;;20.50;1.00;;;;;;5051225;28;20472;-54
2022/06/01 08:16:35;;;;;;;3.10;2.87;;;20.40;1.00;;;;;;5046897;28;20468;-55
2022/06/01 08:19:00;;;;;;;4.20;3.60;;;20.50;1.00;;;;;;5051022;28;20443;-56
2022/06/01 08:21:26;;;;;;;4.33;3.17;;;20.30;1.00;;;;;;5051041;28;20439;-55
2022/06/01 08:23:52;;;;;;;4.17;3.40;;;20.10;1.00;;;;;;5048348;28;20219;-55
2022/06/01 08:26:17;;;;;;;3.77;3.47;;;20.20;1.00;;;;;;5050363;28;20180;-55
2022/06/01 08:28:43;;;;;;;4.00;3.70;;;20.30;1.00;;;;;;5050982;28;20237;-55
2022/06/01 08:31:08;;;;;;;2.73;2.53;;;20.50;1.00;;;;;;5056316;28;20184;-54
2022/06/01 08:33:34;;;;;;;5.60;2.67;;;20.70;1.00;;;;;;5049001;28;20301;-55
2022/06/01 08:36:00;;;;;;;4.27;3.87;;;21.00;1.00;;;;;;5047461;28;20191;-54
2022/06/01 08:38:25;;;;;;;3.90;3.23;;;21.70;1.00;;;;;;5048604;28;20417;-57
2022/06/01 08:40:59;;;;;;;4.33;3.93;;;20.70;1.00;;;;;;5049928;28;20249;-61
2022/06/01 08:43:29;;;;;;;3.97;3.67;;;20.70;1.00;;;;;;5049590;28;20219;-60
2022/06/01 08:45:58;;;;;;;3.30;3.00;;;20.80;1.00;;;;;;5048477;28;20440;-60
2022/06/01 08:48:32;;;;;;;3.20;3.00;;;20.80;1.00;;;;;;5047472;28;20542;-60
2022/06/01 08:50:58;;;;;;;3.50;2.67;;;20.90;1.00;;;;;;5047024;28;20936;-60
2022/06/01 08:53:23;;;;;;;2.40;2.20;;;21.10;1.00;;;;;;5049892;28;20449;-60
2022/06/01 08:55:58;;;;;;;1.83;1.73;;;21.00;1.00;;;;;;5048442;28;20188;-60
2022/06/01 08:58:35;;;;;;;3.30;2.20;;;20.90;1.00;;;;;;5049559;28;20191;-59
2022/06/01 09:01:29;;;;;;;2.50;2.30;;;21.00;1.00;;;;;;5046494;28;20459;-59
2022/06/01 09:04:28;;;;;;;1.73;1.63;;;20.90;1.00;;;;;;5037687;28;21262;-59
2022/06/01 09:07:20;;;;;;;2.50;2.00;;;21.20;1.00;;;;;;5047574;28;20447;-60
2022/06/01 09:10:15;;;;;;;3.03;1.90;;;21.70;1.00;;;;;;5045769;28;21071;-62
2022/06/01 09:12:43;;;;;;;1.83;1.63;;;21.70;1.00;;;;;;5046324;28;20470;-62
2022/06/01 09:15:31;;;;;;;2.00;1.60;;;21.90;1.00;;;;;;5047093;28;20436;-62
2022/06/01 09:17:59;;;;;;;2.30;2.10;;;22.20;1.00;;;;;;5048211;28;20450;-61
2022/06/01 09:23:13;;;;;;;3.90;2.00;;;21.80;1.00;;;;;;5045894;28;20420;-59
2022/06/01 09:25:50;;;;;;;2.23;2.07;;;21.80;1.00;;;;;;5047570;28;20436;-61
2022/06/01 09:28:24;;;;;;;2.07;1.97;;;21.60;1.00;;;;;;5047377;28;20487;-60
2022/06/01 09:31:02;;;;;;;2.20;2.07;;;21.20;1.00;;;;;;5048057;28;20746;-59
2022/06/01 09:33:37;;;;;;;1.63;1.53;;;20.80;1.00;;;;;;5056717;28;20801;-61
2022/06/01 09:36:09;;;;;;;2.80;1.70;;;20.40;1.00;;;;;;5049312;28;20429;-61
2022/06/01 09:38:40;;;;;;;2.87;1.57;;;20.80;1.00;;;;;;5057586;28;20603;-58
2022/06/01 09:41:22;;;;;;;4.20;2.10;;;21.10;1.00;;;;;;5047460;28;20448;-59
2022/06/01 09:43:58;;;;;;;2.13;1.93;;;21.30;1.00;;;;;;5055603;28;20427;-59
2022/06/01 09:46:32;;;;;;;5.40;2.00;;;21.40;1.00;;;;;;5063194;28;20551;-59
2022/06/01 09:48:58;;;;;;;2.00;1.80;;;21.20;1.00;;;;;;5047712;28;20757;-59
2022/06/01 09:51:25;;;;;;;2.90;2.50;;;21.00;1.00;;;;;;5049422;28;20456;-59
2022/06/01 09:54:10;;;;;;;3.67;2.97;;;20.70;1.00;;;;;;5054470;28;20474;-60
2022/06/01 09:56:44;;;;;;;3.20;2.80;;;20.40;1.00;;;;;;5049487;28;20444;-58
2022/06/01 10:08:08;;;;;;;2.70;2.50;;;20.50;1.00;;;;;;5047825;28;20521;-60
2022/06/01 10:10:35;;;;;;;3.17;2.90;;;;;;;;;;5055723;28;20938;-60
2022/06/01 10:13:02;;;;;;;4.17;2.83;;;20.90;1.00;;;;;;5050721;28;20432;-60
2022/06/01 10:15:42;;;;;;;3.07;2.87;;;21.00;1.00;;;;;;5047243;28;20505;-60
2022/06/01 10:18:21;;;;;;;3.37;3.07;;;21.10;1.00;;;;;;5049300;28;20533;-60
2022/06/01 10:20:49;;;;;;;2.90;2.70;;;21.10;1.00;;;;;;5058804;28;20512;-59
2022/06/01 10:23:48;;;;;;;5.57;2.80;;;20.90;1.00;;;;;;5054832;28;20421;-59
2022/06/01 10:26:23;;;;;;;3.13;2.53;;;21.00;1.00;;;;;;5046792;28;20443;-60
2022/06/01 10:28:54;;;;;;;3.07;2.73;;;21.10;1.00;;;;;;5045383;28;20454;-59
2022/06/01 10:31:25;;;;;;;2.90;2.70;;;21.40;1.00;;;;;;5054578;28;20446;-59
2022/06/01 10:33:59;;;;;;;4.13;2.30;;;21.60;1.00;;;;;;5047771;28;20499;-63
2022/06/01 10:36:53;;;;;;;2.83;2.30;;;21.60;1.00;;;;;;5042111;28;20781;-63
2022/06/01 10:39:25;;;;;;;2.83;2.63;;;21.80;1.00;;;;;;5045880;28;20848;-63
2022/06/01 10:42:17;;;;;;;3.60;2.40;;;21.90;1.00;;;;;;5050032;28;20405;-63
2022/06/01 10:45:04;;;;;;;2.27;2.17;;;21.90;1.00;;;;;;5057567;28;20457;-64
2022/06/01 10:48:06;;;;;;;3.20;2.47;;;22.10;1.00;;;;;;5049868;28;20485;-63
2022/06/01 10:50:45;;;;;;;3.23;2.40;;;22.20;1.00;;;;;;5049638;28;20420;-63
2022/06/01 10:53:33;;;;;;;2.40;2.07;;;21.90;1.00;;;;;;5049065;28;20490;-63
2022/06/01 10:55:59;;;;;;;3.77;2.40;;;21.90;1.00;;;;;;5065984;28;20441;-63
2022/06/01 10:58:25;;;;;;;3.53;2.20;;;21.80;1.00;;;;;;5060201;28;20516;-63
2022/06/01 11:00:56;;;;;;;3.10;2.03;;;21.80;1.00;;;;;;5051090;28;20918;-63
2022/06/01 11:03:39;;;;;;;2.30;2.10;;;21.90;1.00;;;;;;5050610;28;20547;-63
2022/06/01 11:06:32;;;;;;;4.90;2.20;;;21.80;1.00;;;;;;5053624;28;20445;-64
2022/06/01 11:09:10;;;;;;;2.40;2.20;;;21.70;1.00;;;;;;5051142;28;20499;-64
2022/06/01 11:11:53;;;;;;;4.80;1.90;;;21.70;1.00;;;;;;5051670;28;20759;-63
2022/06/01 11:14:43;;;;;;;3.80;2.47;;;21.40;1.00;;;;;;5053237;28;20545;-63
2022/06/01 11:17:20;;;;;;;3.50;2.10;;;21.70;1.00;;;;;;5051924;28;20458;-63
2022/06/01 11:20:14;;;;;;;3.40;2.40;;;21.80;1.00;;;;;;5053954;28;20427;-63
2022/06/01 11:22:52;;;;;;;3.07;2.33;;;22.10;1.00;;;;;;5051490;28;20461;-64
2022/06/01 11:25:43;;;;;;;2.30;2.10;;;22.20;1.00;;;;;;5052024;28;20836;-61
2022/06/01 11:28:27;;;;;;;2.67;2.47;;;22.80;1.00;;;;;;5053057;28;20413;-64
2022/06/01 11:31:14;;;;;;;3.10;2.30;;;22.70;1.00;;;;;;5054630;28;20417;-65
2022/06/01 11:33:59;;;;;;;2.30;2.10;;;22.80;1.00;;;;;;5049082;28;20479;-64
2022/06/01 11:36:38;;;;;;;2.67;2.47;;;22.50;1.00;;;;;;5056896;28;20460;-63
2022/06/01 11:39:37;;;;;;;2.40;2.20;;;22.40;1.00;;;;;;5049278;28;20412;-64
2022/06/01 11:42:12;;;;;;;2.50;2.20;;;22.00;1.00;;;;;;5050882;28;20446;-63
2022/06/01 11:44:41;;;;;;;2.50;2.20;;;22.00;1.00;;;;;;5047754;28;20416;-64
2022/06/01 11:47:18;;;;;;;2.90;2.70;;;22.20;1.00;;;;;;5050160;28;20477;-63
2022/06/01 11:50:03;;;;;;;2.80;2.60;;;22.50;1.00;;;;;;5050094;28;20464;-63
2022/06/01 11:52:28;;;;;;;3.20;2.40;;;22.50;1.00;;;;;;5051541;28;20779;-64
2022/06/01 11:55:12;;;;;;;2.97;2.77;;;22.40;1.00;;;;;;5051262;28;20444;-64
2022/06/01 11:57:54;;;;;;;3.13;2.70;;;22.40;1.00;;;;;;5058871;28;20185;-63
2022/06/01 12:00:40;;;;;;;3.83;2.70;;;22.40;1.00;;;;;;5048382;28;20441;-62
2022/06/01 12:03:21;;;;;;;2.73;2.50;;;22.40;1.00;;;;;;5048803;28;20892;-62
2022/06/01 12:06:01;;;;;;;3.23;2.37;;;22.30;1.00;;;;;;5058407;28;20795;-61
2022/06/01 12:08:42;;;;;;;3.00;2.80;;;22.00;1.00;;;;;;5070997;28;20516;-62
2022/06/01 12:11:30;;;;;;;3.70;2.57;;;22.30;1.00;;;;;;5049020;28;20405;-61
2022/06/01 12:13:56;;;;;;;2.53;2.33;;;22.20;1.00;;;;;;5061044;28;20468;-61
2022/06/01 12:16:27;;;;;;;2.73;2.53;;;22.30;1.00;;;;;;5072591;28;20512;-61
2022/06/01 12:19:09;;;;;;;2.90;2.03;;;22.30;1.00;;;;;;5068765;28;20716;-61
2022/06/01 12:21:43;;;;;;;2.87;2.63;;;22.50;1.00;;;;;;5058221;28;20442;-61
2022/06/01 12:30:18;;;;;;;2.57;2.37;;;22.50;1.00;;;;;;5052433;28;20429;-60
2022/06/01 12:32:59;;;;;;;3.33;2.00;;;22.40;1.00;;;;;;5062193;28;20959;-60
2022/06/01 12:35:31;;;;;;;2.50;2.30;;;22.40;1.00;;;;;;5059278;28;20908;-61
2022/06/01 12:38:08;;;;;;;4.60;2.60;;;22.40;1.00;;;;;;5054933;28;20420;-61
2022/06/01 12:40:34;;;;;;;2.63;2.43;;;22.80;1.00;;;;;;5065755;28;20807;-60
2022/06/01 12:43:02;;;;;;;2.83;2.50;;;22.70;1.00;;;;;;5072030;28;20440;-61
2022/06/01 12:45:40;;;;;;;3.80;2.23;;;22.80;1.00;;;;;;5067869;28;20409;-62
2022/06/01 12:48:09;;;;;;;2.80;2.60;;;23.30;1.00;;;;;;5057368;28;20751;-61
2022/06/01 12:50:48;;;;;;;2.50;1.80;;;23.80;1.00;;;;;;5062145;28;20964;-61
2022/06/01 12:53:19;;;;;;;5.07;2.00;;;23.70;1.00;;;;;;5058995;28;20513;-62
2022/06/01 12:55:46;;;;;;;2.50;2.27;;;23.40;1.00;;;;;;5064433;28;20412;-61
2022/06/01 12:58:21;;;;;;;2.67;2.00;;;23.20;1.00;;;;;;5061180;28;20464;-60
2022/06/01 13:00:54;;;;;;;2.30;2.00;;;23.30;1.00;;;;;;5053922;28;20436;-60
2022/06/01 13:03:22;;;;;;;2.03;1.90;;;23.60;1.00;;;;;;5050461;28;20975;-61
2022/06/01 13:05:52;;;;;;;1.90;1.80;;;24.00;1.00;;;;;;5070829;28;20441;-60
2022/06/01 13:08:25;;;;;;;1.80;1.70;;;24.10;1.00;;;;;;5059174;28;20416;-61
2022/06/01 13:10:51;;;;;;;2.90;2.33;;;23.90;1.00;;;;;;5053458;28;20417;-61
2022/06/01 13:13:23;;;;;;;3.07;1.97;;;23.80;1.00;;;;;;5062758;28;20435;-61
2022/06/01 13:16:07;;;;;;;4.13;2.07;;;23.70;1.00;;;;;;5062946;28;20445;-60
2022/06/01 13:18:38;;;;;;;3.10;2.07;;;23.40;1.00;;;;;;5058514;28;20491;-60
2022/06/01 13:21:11;;;;;;;2.90;1.63;;;23.40;1.00;;;;;;5054853;28;20947;-61
2022/06/01 13:23:56;;;;;;;3.87;2.27;;;23.40;1.00;;;;;;5054064;28;20548;-61
2022/06/01 13:26:36;;;;;;;3.43;2.10;;;23.20;1.00;;;;;;5068315;28;20424;-61
2022/06/01 13:29:44;;;;;;;2.90;1.90;;;23.10;1.00;;;;;;5050622;28;20442;-61
2022/06/01 13:32:12;;;;;;;3.70;1.97;;;23.50;1.00;;;;;;5067818;28;20437;-61
2022/06/01 13:34:52;;;;;;;3.00;1.73;;;23.60;1.00;;;;;;5056820;28;20439;-61
2022/06/01 13:37:23;;;;;;;2.67;2.00;;;23.70;1.00;;;;;;5059318;28;20419;-61
2022/06/01 13:39:54;;;;;;;2.70;1.87;;;24.20;1.00;;;;;;5053436;28;20421;-62
2022/06/01 13:42:32;;;;;;;1.90;1.70;;;24.00;1.00;;;;;;5057606;28;20426;-61
2022/06/01 13:45:03;;;;;;;3.33;1.70;;;23.80;1.00;;;;;;5064379;28;20419;-62